Accueil
METAR-TAF:

METAR-TAF

Aéroports :

Aéroport international Angoulême-Cognac

Angoulême, France

latitude: 45-43-46N, longitude: 00-13-08E, altitude: 132 m

Observation

Le bulletin a été fait il y a 26 minutes, à 23:30 UTC
Vent 13 kt de nord/nord-est
Température 4°C
Humidité 60%
Pression 1023 hPa
Visibilité 10 km ou plus
Quelques nuages à une hauteur de 4200 ft

METAR: LFBU 292330Z AUTO 03013KT 9999 FEW042 04/M03 Q1023

Heure: 01:56 (23:56 UTC)


TAF: absent

Observations et prévisions météorologiques de plus de 4000 aéroports (messages METAR et TAF).

Les stations disponibles sont représentées par des disques jaunes et rouges sur la carte.

Passer la souris dessus pour voir le nom de la station.

Cliquer dessus pour voir les observations et prévisions météorologiques.

Pour changer de carte: cliquez sur les boutons verts avec une croix noire pour zoomer, sur le bouton vert avec un tiret pour effectuer un zoom arrière, ou sur les flèches vertes pour les cartes adjacentes.


METAR-TAF: